Airport View

Enter AWOS ICAO identifier for current METAR.

ex. KFNL

KSCH 080150Z 00000KT 15SM OVC065 22/19 A3016 RMK LAST

8 Aug 2020 05:13

Frequency: 119.275

Phone: 518-399-6586

Other Area AWOS: KALB - KNY0 - KDDH - KGFL

TAF KALB 072326Z 0800/0824 VRB03KT P6SM VCSH BKN060 FM080900 VRB02KT 6SM BR VCSH SCT025 BKN040 PROB30 0809/0813 2SM SHRA BR OVC015 FM081400 19004KT P6SM BKN035 FM081900 18005KT P6SM SCT050